Time;durP1;ratioP1;P1;durP2;ratioP2;P2;SDS_P1;SDS_P2;PMS_P1;PMS_P2;Temp;Humidity;BMP_temperature;BMP_pressure;BME280_temperature;BME280_humidity;BME280_pressure;Samples;Min_cycle;Max_cycle;Signal;HPM_P1;HPM_P2
2021/06/18 00:00:13;;;;;;;10.45;4.78;;;;;;;;;;4890985;29;20056;-86
2021/06/18 00:02:58;;;;;;;9.30;5.30;;;;;;;;;;4896697;29;20020;-85
2021/06/18 00:05:43;;;;;;;8.05;4.90;;;;;;;;;;4894324;29;20031;-85
2021/06/18 00:08:29;;;;;;;9.65;5.28;;;;;;;;;;4893593;29;20020;-85
2021/06/18 00:11:14;;;;;;;9.40;4.75;;;;;;;;;;4892360;29;20103;-86
2021/06/18 00:13:59;;;;;;;9.45;5.57;;;;;;;;;;4896781;29;20027;-86
2021/06/18 00:16:45;;;;;;;9.90;5.95;;;;;;;;;;4878641;29;20028;-86
2021/06/18 00:19:30;;;;;;;9.88;5.43;;;;;;;;;;4901396;29;20137;-86
2021/06/18 00:22:15;;;;;;;7.82;5.20;;;;;;;;;;4891143;29;20114;-86
2021/06/18 00:25:00;;;;;;;8.40;5.22;;;;;;;;;;4891310;29;20028;-86
2021/06/18 00:27:46;;;;;;;8.25;5.60;;;;;;;;;;4893496;29;20067;-86
2021/06/18 00:30:31;;;;;;;9.63;5.53;;;;;;;;;;4889786;29;20036;-85
2021/06/18 00:33:16;;;;;;;8.63;4.65;;;;;;;;;;4875772;29;20119;-87
2021/06/18 00:36:02;;;;;;;8.35;4.88;;;;;;;;;;4876131;29;20480;-85
2021/06/18 00:38:47;;;;;;;9.13;5.47;;;;;;;;;;4879947;29;20634;-85
2021/06/18 00:41:32;;;;;;;9.50;5.40;;;;;;;;;;4880158;29;20025;-86
2021/06/18 00:44:18;;;;;;;7.40;5.13;;;;;;;;;;4876565;29;20032;-86
2021/06/18 00:47:03;;;;;;;6.72;5.22;;;;;;;;;;4879595;29;20043;-86
2021/06/18 00:49:50;;;;;;;10.55;5.53;;;;;;;;;;4882160;29;20032;-86
2021/06/18 00:52:35;;;;;;;7.38;5.30;;;;;;;;;;4876173;29;20028;-86
2021/06/18 00:55:20;;;;;;;10.85;5.68;;;;;;;;;;4877844;29;20056;-86
2021/06/18 00:58:06;;;;;;;10.80;5.53;;;;;;;;;;4870794;29;20115;-85
2021/06/18 01:00:51;;;;;;;7.80;5.63;;;;;;;;;;4875284;29;20031;-86
2021/06/18 01:03:37;;;;;;;7.55;5.35;;;;;;;;;;4864396;29;20020;-86
2021/06/18 01:06:34;;;;;;;7.30;5.47;;;;;;;;;;4877817;29;20020;-86
2021/06/18 01:09:21;;;;;;;9.55;5.70;;;;;;;;;;4876998;29;20020;-86
2021/06/18 01:12:10;;;;;;;8.15;5.25;;;;;;;;;;4862225;29;20244;-87
2021/06/18 01:15:24;;;;;;;8.60;5.32;;;;;;;;;;4887709;29;20028;-86
2021/06/18 01:18:15;;;;;;;8.35;5.28;;;;;;;;;;4878789;29;20100;-86
2021/06/18 01:21:15;;;;;;;8.82;5.20;;;;;;;;;;4871627;29;20480;-86
2021/06/18 01:24:10;;;;;;;9.93;7.10;;;;;;;;;;4878648;29;20029;-86
2021/06/18 01:26:55;;;;;;;9.00;5.68;;;;;;;;;;4875856;29;20112;-85
2021/06/18 01:29:46;;;;;;;9.30;5.75;;;;;;;;;;4877853;29;20279;-85
2021/06/18 01:32:34;;;;;;;8.20;4.93;;;;;;;;;;4858914;29;20126;-86
2021/06/18 01:35:20;;;;;;;8.35;5.28;;;;;;;;;;4878456;29;20107;-84
2021/06/18 01:38:07;;;;;;;7.70;5.38;;;;;;;;;;4887000;29;20025;-85
2021/06/18 01:40:54;;;;;;;5.78;4.85;;;;;;;;;;4871506;29;20472;-86
2021/06/18 01:43:39;;;;;;;12.65;5.75;;;;;;;;;;4875563;29;20124;-86
2021/06/18 01:46:26;;;;;;;11.38;5.95;;;;;;;;;;4875073;29;20413;-85
2021/06/18 01:49:13;;;;;;;7.82;5.95;;;;;;;;;;4872160;29;20087;-84
2021/06/18 01:51:59;;;;;;;9.13;5.47;;;;;;;;;;4875861;29;20040;-86
2021/06/18 01:54:45;;;;;;;8.10;5.65;;;;;;;;;;4873325;29;20032;-85
2021/06/18 01:57:32;;;;;;;7.45;5.57;;;;;;;;;;4878131;29;20048;-87
2021/06/18 02:00:17;;;;;;;9.40;5.32;;;;;;;;;;4876916;29;20035;-86
2021/06/18 02:03:05;;;;;;;9.70;5.18;;;;;;;;;;4870125;29;20117;-87
2021/06/18 02:05:52;;;;;;;11.40;5.35;;;;;;;;;;4879385;29;20219;-87
2021/06/18 02:08:39;;;;;;;10.68;5.07;;;;;;;;;;4882736;29;20040;-87
2021/06/18 02:11:25;;;;;;;12.52;6.18;;;;;;;;;;4881151;29;20508;-87
2021/06/18 02:14:15;;;;;;;7.85;5.53;;;;;;;;;;4890486;29;20648;-86
2021/06/18 02:17:03;;;;;;;9.65;5.32;;;;;;;;;;4879978;29;20560;-86
2021/06/18 02:19:49;;;;;;;8.38;4.97;;;;;;;;;;4878804;29;20127;-86
2021/06/18 02:22:35;;;;;;;9.65;5.80;;;;;;;;;;4879805;29;20047;-87
2021/06/18 02:25:21;;;;;;;10.40;5.97;;;;;;;;;;4878800;29;20092;-86
2021/06/18 02:28:07;;;;;;;11.05;6.03;;;;;;;;;;4881820;29;20130;-86
2021/06/18 02:30:53;;;;;;;12.70;5.90;;;;;;;;;;4880628;29;20045;-86
2021/06/18 02:33:38;;;;;;;7.72;5.68;;;;;;;;;;4890812;29;20028;-86
2021/06/18 02:36:23;;;;;;;9.70;5.40;;;;;;;;;;4892331;29;20487;-86
2021/06/18 02:39:10;;;;;;;9.45;5.93;;;;;;;;;;4886704;29;20059;-86
2021/06/18 02:41:55;;;;;;;7.95;5.57;;;;;;;;;;4888827;29;20040;-84
2021/06/18 02:44:40;;;;;;;11.23;6.47;;;;;;;;;;4895211;29;20028;-86
2021/06/18 02:47:32;;;;;;;10.65;5.80;;;;;;;;;;4885401;29;20033;-86
2021/06/18 02:50:28;;;;;;;12.13;5.72;;;;;;;;;;4892164;29;20059;-87
2021/06/18 02:53:28;;;;;;;9.05;5.65;;;;;;;;;;4892136;29;20513;-86
2021/06/18 02:56:18;;;;;;;11.68;5.53;;;;;;;;;;4890044;29;20119;-85
2021/06/18 02:59:27;;;;;;;8.75;5.63;;;;;;;;;;4890147;29;20036;-85
2021/06/18 03:02:14;;;;;;;8.73;5.97;;;;;;;;;;4874048;29;20024;-85
2021/06/18 03:05:01;;;;;;;7.85;5.20;;;;;;;;;;4887597;29;20027;-86
2021/06/18 03:07:53;;;;;;;8.82;5.57;;;;;;;;;;4890459;29;20123;-86
2021/06/18 03:10:39;;;;;;;10.60;5.13;;;;;;;;;;4890201;29;20064;-86
2021/06/18 03:13:30;;;;;;;9.93;5.25;;;;;;;;;;4887698;29;20487;-86
2021/06/18 03:16:15;;;;;;;14.15;5.35;;;;;;;;;;4886246;29;20025;-86
2021/06/18 03:19:02;;;;;;;9.75;6.05;;;;;;;;;;4906866;29;20036;-85
2021/06/18 03:21:48;;;;;;;10.70;5.63;;;;;;;;;;4889742;29;20115;-86
2021/06/18 03:24:34;;;;;;;7.60;5.10;;;;;;;;;;4902331;29;20565;-85
2021/06/18 03:27:20;;;;;;;6.57;4.90;;;;;;;;;;4890165;29;20079;-85
2021/06/18 03:30:06;;;;;;;8.23;5.35;;;;;;;;;;4895154;29;20694;-84
2021/06/18 03:32:52;;;;;;;8.23;5.32;;;;;;;;;;4895117;29;20488;-86
2021/06/18 03:35:38;;;;;;;8.88;5.18;;;;;;;;;;4893205;29;20376;-87
2021/06/18 03:38:24;;;;;;;11.13;5.45;;;;;;;;;;4909886;29;20020;-86
2021/06/18 03:41:09;;;;;;;8.68;5.00;;;;;;;;;;4887236;29;20052;-86
2021/06/18 03:43:54;;;;;;;8.32;6.03;;;;;;;;;;4899673;29;20491;-86
2021/06/18 03:46:40;;;;;;;8.52;5.20;;;;;;;;;;4899806;29;20021;-86
2021/06/18 03:49:27;;;;;;;10.35;5.47;;;;;;;;;;4896788;29;20086;-87
2021/06/18 03:52:12;;;;;;;8.52;5.15;;;;;;;;;;4895009;29;20028;-86
2021/06/18 03:54:58;;;;;;;7.53;5.18;;;;;;;;;;4896031;29;20038;-87
2021/06/18 03:57:44;;;;;;;7.47;5.30;;;;;;;;;;4897462;29;20055;-86
2021/06/18 04:00:32;;;;;;;9.68;5.85;;;;;;;;;;4904595;29;20043;-87
2021/06/18 04:03:21;;;;;;;10.27;5.25;;;;;;;;;;4884817;29;20495;-87
2021/06/18 04:06:06;;;;;;;7.32;5.55;;;;;;;;;;4906432;29;20154;-87
2021/06/18 04:08:52;;;;;;;7.97;6.28;;;;;;;;;;4895791;29;20087;-87
2021/06/18 04:11:38;;;;;;;5.93;5.22;;;;;;;;;;4899662;29;20016;-88
2021/06/18 04:14:23;;;;;;;10.80;5.18;;;;;;;;;;4891642;29;20099;-88
2021/06/18 04:17:09;;;;;;;9.10;5.88;;;;;;;;;;4898074;29;20028;-87
2021/06/18 04:19:54;;;;;;;10.45;6.13;;;;;;;;;;4892321;29;20031;-88
2021/06/18 04:22:40;;;;;;;6.53;5.00;;;;;;;;;;4899534;29;20024;-85
2021/06/18 04:25:25;;;;;;;8.60;5.18;;;;;;;;;;4895781;29;20054;-85
2021/06/18 04:28:10;;;;;;;11.02;5.07;;;;;;;;;;4897151;29;20028;-88
2021/06/18 04:30:56;;;;;;;9.43;5.60;;;;;;;;;;4890758;29;20049;-87
2021/06/18 04:33:41;;;;;;;7.85;4.95;;;;;;;;;;4894391;29;20032;-89
2021/06/18 04:36:27;;;;;;;10.05;6.40;;;;;;;;;;4877771;29;20384;-87
2021/06/18 04:39:13;;;;;;;7.57;5.05;;;;;;;;;;4892362;29;20175;-88
2021/06/18 04:42:01;;;;;;;8.25;5.13;;;;;;;;;;4891201;29;20056;-87
2021/06/18 04:44:46;;;;;;;8.45;5.13;;;;;;;;;;4883998;29;20064;-88
2021/06/18 04:47:31;;;;;;;9.27;5.38;;;;;;;;;;4873940;29;20088;-87
2021/06/18 04:50:17;;;;;;;8.98;5.60;;;;;;;;;;4887595;29;20025;-86
2021/06/18 04:53:04;;;;;;;7.88;5.55;;;;;;;;;;4891320;29;20480;-87
2021/06/18 04:55:49;;;;;;;6.78;5.18;;;;;;;;;;4874034;29;20439;-87
2021/06/18 04:58:35;;;;;;;7.72;5.05;;;;;;;;;;4893023;29;20023;-87
2021/06/18 05:01:20;;;;;;;8.85;5.68;;;;;;;;;;4874866;29;20417;-88
2021/06/18 05:04:05;;;;;;;8.45;5.70;;;;;;;;;;4887341;29;20436;-88
2021/06/18 05:06:51;;;;;;;9.50;5.93;;;;;;;;;;4886901;29;20028;-88
2021/06/18 05:09:36;;;;;;;7.90;5.07;;;;;;;;;;4892469;29;20025;-87
2021/06/18 05:12:22;;;;;;;7.85;5.40;;;;;;;;;;4891987;29;20020;-87
2021/06/18 05:15:07;;;;;;;6.80;4.72;;;;;;;;;;4884138;29;20036;-89
2021/06/18 05:17:53;;;;;;;8.15;4.95;;;;;;;;;;4872645;29;20036;-88
2021/06/18 05:20:38;;;;;;;9.77;5.25;;;;;;;;;;4890959;29;20033;-88
2021/06/18 05:23:23;;;;;;;8.25;5.07;;;;;;;;;;4892923;29;20127;-87
2021/06/18 05:26:08;;;;;;;7.60;5.28;;;;;;;;;;4888165;29;20432;-88
2021/06/18 05:28:54;;;;;;;9.82;5.88;;;;;;;;;;4887902;29;20040;-86
2021/06/18 05:31:39;;;;;;;8.35;6.00;;;;;;;;;;4890975;29;20052;-87
2021/06/18 05:34:24;;;;;;;10.68;5.60;;;;;;;;;;4886146;29;20035;-86
2021/06/18 05:37:09;;;;;;;8.13;5.35;;;;;;;;;;4885892;29;20025;-82
2021/06/18 05:39:55;;;;;;;7.43;5.25;;;;;;;;;;4890205;29;20021;-83
2021/06/18 05:42:41;;;;;;;7.57;5.32;;;;;;;;;;4883206;29;20127;-84
2021/06/18 05:45:26;;;;;;;8.63;5.10;;;;;;;;;;4889050;29;20099;-83
2021/06/18 05:48:12;;;;;;;8.45;5.63;;;;;;;;;;4880018;29;20023;-85
2021/06/18 05:50:57;;;;;;;7.20;4.75;;;;;;;;;;4891927;29;20061;-87
2021/06/18 05:53:42;;;;;;;7.30;4.72;;;;;;;;;;4887021;29;20021;-86
2021/06/18 05:56:27;;;;;;;8.05;5.15;;;;;;;;;;4888708;29;20036;-86
2021/06/18 05:59:12;;;;;;;6.72;4.50;;;;;;;;;;4889089;29;20365;-87
2021/06/18 06:01:58;;;;;;;5.10;4.15;;;;;;;;;;4890490;29;20193;-78
2021/06/18 06:04:43;;;;;;;13.73;8.50;;;;;;;;;;4880334;29;20479;-82
2021/06/18 06:07:28;;;;;;;9.23;6.38;;;;;;;;;;4886840;29;20721;-82
2021/06/18 06:10:14;;;;;;;6.55;4.95;;;;;;;;;;4887849;29;20492;-81
2021/06/18 06:12:59;;;;;;;8.60;4.25;;;;;;;;;;4888429;29;20036;-83
2021/06/18 06:15:46;;;;;;;8.27;4.10;;;;;;;;;;4881980;29;20032;-81
2021/06/18 06:18:31;;;;;;;5.97;3.92;;;;;;;;;;4885071;29;20028;-82
2021/06/18 06:21:18;;;;;;;7.38;3.63;;;;;;;;;;4887994;29;20501;-83
2021/06/18 06:24:03;;;;;;;8.15;3.65;;;;;;;;;;4878999;29;20502;-82
2021/06/18 06:26:48;;;;;;;8.15;4.10;;;;;;;;;;4888407;29;20107;-83
2021/06/18 06:29:34;;;;;;;6.68;4.65;;;;;;;;;;4886940;29;20028;-82
2021/06/18 06:32:19;;;;;;;7.05;3.97;;;;;;;;;;4888261;29;20135;-81
2021/06/18 06:35:05;;;;;;;5.78;4.10;;;;;;;;;;4885788;29;20035;-81
2021/06/18 06:37:50;;;;;;;8.98;4.32;;;;;;;;;;4888851;29;20084;-81
2021/06/18 06:40:36;;;;;;;13.63;8.85;;;;;;;;;;4886146;29;20032;-81
2021/06/18 06:43:21;;;;;;;9.50;5.85;;;;;;;;;;4886493;29;20041;-81
2021/06/18 06:46:06;;;;;;;8.05;4.45;;;;;;;;;;4884500;29;20036;-82
2021/06/18 06:48:51;;;;;;;12.43;4.47;;;;;;;;;;4882666;29;20039;-82
2021/06/18 06:51:36;;;;;;;10.95;3.85;;;;;;;;;;4888152;29;20028;-81
2021/06/18 06:54:25;;;;;;;6.70;4.13;;;;;;;;;;4878418;29;20039;-80
2021/06/18 06:57:11;;;;;;;5.38;3.83;;;;;;;;;;4882728;29;20120;-80
2021/06/18 06:59:56;;;;;;;8.18;4.30;;;;;;;;;;4876667;29;20547;-81
2021/06/18 07:02:43;;;;;;;5.80;3.72;;;;;;;;;;4888665;29;20112;-80
2021/06/18 07:05:28;;;;;;;10.75;4.30;;;;;;;;;;4878622;29;20025;-80
2021/06/18 07:08:16;;;;;;;6.07;3.90;;;;;;;;;;4891658;29;20046;-80
2021/06/18 07:11:01;;;;;;;9.50;4.05;;;;;;;;;;4874090;29;20013;-80
2021/06/18 07:13:46;;;;;;;6.68;3.70;;;;;;;;;;4890817;29;20080;-80
2021/06/18 07:16:32;;;;;;;6.82;4.00;;;;;;;;;;4877414;29;20405;-80
2021/06/18 07:19:17;;;;;;;7.40;4.28;;;;;;;;;;4892231;29;20439;-81
2021/06/18 07:22:07;;;;;;;10.50;4.65;;;;;;;;;;4883399;29;20392;-79
2021/06/18 07:24:53;;;;;;;8.02;3.92;;;;;;;;;;4880901;29;20029;-81
2021/06/18 07:27:38;;;;;;;7.55;4.75;;;;;;;;;;4888063;29;20107;-81
2021/06/18 07:30:23;;;;;;;14.60;10.90;;;;;;;;;;4888613;29;20098;-81
2021/06/18 07:33:09;;;;;;;7.60;4.93;;;;;;;;;;4870891;29;20033;-81
2021/06/18 07:35:54;;;;;;;8.43;4.80;;;;;;;;;;4861121;29;20043;-81
2021/06/18 07:38:40;;;;;;;8.10;3.63;;;;;;;;;;4876946;29;20037;-80
2021/06/18 07:41:25;;;;;;;7.35;4.63;;;;;;;;;;4878438;29;20043;-80
2021/06/18 07:44:10;;;;;;;5.93;3.83;;;;;;;;;;4871357;29;20484;-80
2021/06/18 07:46:55;;;;;;;8.23;4.20;;;;;;;;;;4880003;29;20028;-81
2021/06/18 07:49:40;;;;;;;12.52;5.50;;;;;;;;;;4878886;29;20635;-80
2021/06/18 07:52:26;;;;;;;5.85;4.20;;;;;;;;;;4875340;29;20103;-80
2021/06/18 07:55:16;;;;;;;7.35;4.07;;;;;;;;;;4877128;29;20028;-80
2021/06/18 07:58:02;;;;;;;8.15;3.67;;;;;;;;;;4876767;29;20060;-80
2021/06/18 08:00:47;;;;;;;10.13;5.07;;;;;;;;;;4878571;29;20024;-81
2021/06/18 08:03:32;;;;;;;8.15;4.45;;;;;;;;;;4879135;29;20059;-80
2021/06/18 08:06:18;;;;;;;7.57;4.32;;;;;;;;;;4861344;29;20088;-79
2021/06/18 08:09:03;;;;;;;7.72;4.32;;;;;;;;;;4860463;29;20111;-80
2021/06/18 08:11:49;;;;;;;7.03;4.50;;;;;;;;;;4887383;29;20508;-80
2021/06/18 08:14:35;;;;;;;10.20;6.35;;;;;;;;;;4874333;29;20465;-80
2021/06/18 08:17:20;;;;;;;21.27;18.52;;;;;;;;;;4872613;29;20512;-80
2021/06/18 08:20:07;;;;;;;9.63;5.30;;;;;;;;;;4875677;29;20035;-80
2021/06/18 08:22:54;;;;;;;7.65;4.68;;;;;;;;;;4864112;29;20031;-82
2021/06/18 08:25:40;;;;;;;10.82;5.55;;;;;;;;;;4874769;29;20059;-80
2021/06/18 08:28:25;;;;;;;13.43;5.10;;;;;;;;;;4876205;29;20329;-81
2021/06/18 08:31:10;;;;;;;11.30;5.50;;;;;;;;;;4879969;29;20049;-81
2021/06/18 08:33:57;;;;;;;9.23;4.70;;;;;;;;;;4885820;29;20020;-81
2021/06/18 08:36:43;;;;;;;9.07;4.57;;;;;;;;;;4879772;29;20025;-81
2021/06/18 08:39:28;;;;;;;9.93;5.78;;;;;;;;;;4888864;29;20024;-82
2021/06/18 08:42:13;;;;;;;7.90;4.53;;;;;;;;;;4887324;29;20481;-82
2021/06/18 08:44:58;;;;;;;10.48;5.53;;;;;;;;;;4878473;29;20026;-82
2021/06/18 08:47:44;;;;;;;9.93;5.78;;;;;;;;;;4875170;29;20056;-82
2021/06/18 08:50:35;;;;;;;8.45;5.53;;;;;;;;;;4885955;29;20032;-82
2021/06/18 08:53:22;;;;;;;15.50;13.57;;;;;;;;;;4891509;29;20488;-82
2021/06/18 08:56:07;;;;;;;8.15;5.38;;;;;;;;;;4886001;29;20535;-82
2021/06/18 08:58:52;;;;;;;10.18;5.05;;;;;;;;;;4884727;29;20055;-82
2021/06/18 09:01:38;;;;;;;13.20;5.35;;;;;;;;;;4880100;29;20036;-81
2021/06/18 09:04:23;;;;;;;6.20;5.10;;;;;;;;;;4890389;29;20440;-81
2021/06/18 09:07:08;;;;;;;8.57;5.43;;;;;;;;;;4898356;29;20075;-81
2021/06/18 09:09:53;;;;;;;9.45;5.55;;;;;;;;;;4888348;29;20025;-81
2021/06/18 09:12:38;;;;;;;7.65;5.20;;;;;;;;;;4885539;29;20032;-81
2021/06/18 09:15:27;;;;;;;12.13;5.85;;;;;;;;;;4874207;29;20035;-81
2021/06/18 09:18:22;;;;;;;9.05;6.28;;;;;;;;;;4877096;29;20032;-80
2021/06/18 09:21:10;;;;;;;10.57;5.68;;;;;;;;;;4885107;29;20028;-80
2021/06/18 09:23:56;;;;;;;14.18;6.85;;;;;;;;;;4895071;29;20020;-81
2021/06/18 09:26:41;;;;;;;11.68;5.65;;;;;;;;;;4888953;29;20040;-80
2021/06/18 09:29:27;;;;;;;10.80;5.95;;;;;;;;;;4874291;29;20518;-80
2021/06/18 09:32:13;;;;;;;8.05;5.43;;;;;;;;;;4888230;29;20044;-80
2021/06/18 09:35:03;;;;;;;7.28;5.68;;;;;;;;;;4890265;29;20076;-81
2021/06/18 09:37:52;;;;;;;10.48;5.93;;;;;;;;;;4881176;29;20072;-81
2021/06/18 09:40:37;;;;;;;15.02;10.57;;;;;;;;;;4872523;29;20056;-80
2021/06/18 09:43:23;;;;;;;11.63;8.15;;;;;;;;;;4885849;29;20515;-82
2021/06/18 09:46:12;;;;;;;9.20;6.57;;;;;;;;;;4873550;29;20060;-80
2021/06/18 09:48:57;;;;;;;8.27;6.10;;;;;;;;;;4887418;29;20028;-81
2021/06/18 09:51:52;;;;;;;8.30;6.20;;;;;;;;;;4889418;29;20029;-81
2021/06/18 09:54:42;;;;;;;11.07;5.72;;;;;;;;;;4879392;29;20058;-80
2021/06/18 09:57:39;;;;;;;9.27;5.45;;;;;;;;;;4874863;29;20033;-81
2021/06/18 10:00:26;;;;;;;12.70;10.25;;;;;;;;;;4903301;29;20640;-81
2021/06/18 10:03:11;;;;;;;17.38;11.07;;;;;;;;;;4883642;29;20523;-82
2021/06/18 10:05:56;;;;;;;7.65;5.50;;;;;;;;;;4877791;29;20028;-81
2021/06/18 10:08:42;;;;;;;7.93;6.22;;;;;;;;;;4871602;29;20068;-81
2021/06/18 10:11:28;;;;;;;9.82;6.15;;;;;;;;;;4887763;29;20112;-81
2021/06/18 10:14:14;;;;;;;7.85;5.80;;;;;;;;;;4884421;29;20120;-81
2021/06/18 10:17:00;;;;;;;9.55;5.07;;;;;;;;;;4889382;29;20176;-81
2021/06/18 10:19:45;;;;;;;10.48;5.78;;;;;;;;;;4883487;29;20032;-81
2021/06/18 10:22:32;;;;;;;11.80;5.55;;;;;;;;;;4889343;29;20651;-81
2021/06/18 10:25:25;;;;;;;9.48;5.65;;;;;;;;;;4873867;29;20033;-81
2021/06/18 10:28:12;;;;;;;12.02;5.95;;;;;;;;;;4891591;29;20036;-81
2021/06/18 10:30:58;;;;;;;9.32;5.38;;;;;;;;;;4878698;29;20052;-81
2021/06/18 10:33:44;;;;;;;7.88;5.68;;;;;;;;;;4890836;29;20049;-81
2021/06/18 10:36:29;;;;;;;9.30;5.25;;;;;;;;;;4905226;29;20021;-80
2021/06/18 10:39:15;;;;;;;8.95;4.95;;;;;;;;;;4889061;29;20040;-81
2021/06/18 10:42:01;;;;;;;7.13;4.47;;;;;;;;;;4894213;29;20686;-80
2021/06/18 10:44:47;;;;;;;4.97;4.05;;;;;;;;;;4890460;29;20111;-81
2021/06/18 10:47:35;;;;;;;5.20;3.38;;;;;;;;;;4879132;29;20036;-81
2021/06/18 10:50:41;;;;;;;6.85;4.05;;;;;;;;;;4889539;29;20036;-81
2021/06/18 10:53:26;;;;;;;7.25;3.72;;;;;;;;;;4892507;29;20036;-81
2021/06/18 10:56:11;;;;;;;7.30;3.60;;;;;;;;;;4877625;29;20172;-81
2021/06/18 10:59:05;;;;;;;6.38;3.72;;;;;;;;;;4891406;29;20033;-81
2021/06/18 11:01:51;;;;;;;6.80;3.90;;;;;;;;;;4884112;29;20036;-80
2021/06/18 11:04:37;;;;;;;5.45;3.85;;;;;;;;;;4893059;29;20039;-82
2021/06/18 11:07:29;;;;;;;10.35;5.13;;;;;;;;;;4889724;29;20025;-80
2021/06/18 11:10:26;;;;;;;6.78;3.88;;;;;;;;;;4885077;29;20025;-81
2021/06/18 11:13:12;;;;;;;9.95;4.10;;;;;;;;;;4893066;29;20115;-82
2021/06/18 11:15:57;;;;;;;5.85;3.50;;;;;;;;;;4883885;29;20025;-81
2021/06/18 11:18:43;;;;;;;8.73;6.82;;;;;;;;;;4893179;29;20040;-81
2021/06/18 11:21:28;;;;;;;5.20;3.85;;;;;;;;;;4886721;29;20039;-81
2021/06/18 11:24:31;;;;;;;7.63;3.63;;;;;;;;;;4894034;29;20052;-81
2021/06/18 11:27:22;;;;;;;5.95;3.83;;;;;;;;;;4891132;29;20028;-81
2021/06/18 11:30:26;;;;;;;6.10;4.00;;;;;;;;;;4895034;29;20420;-81
2021/06/18 11:33:31;;;;;;;6.80;4.18;;;;;;;;;;4898837;29;20063;-81
2021/06/18 11:36:23;;;;;;;5.43;3.53;;;;;;;;;;4893890;29;20040;-82
2021/06/18 11:39:08;;;;;;;7.13;3.75;;;;;;;;;;4898930;29;20034;-81
2021/06/18 11:41:58;;;;;;;5.88;3.95;;;;;;;;;;4893349;29;20028;-81
2021/06/18 11:44:43;;;;;;;7.22;3.88;;;;;;;;;;4897636;29;20031;-81
2021/06/18 11:47:34;;;;;;;7.93;3.58;;;;;;;;;;4888796;29;20024;-81
2021/06/18 11:50:36;;;;;;;6.68;4.10;;;;;;;;;;4894039;29;20064;-81
2021/06/18 11:53:21;;;;;;;5.82;4.00;;;;;;;;;;4908375;29;20554;-81
2021/06/18 11:56:07;;;;;;;7.70;3.80;;;;;;;;;;4891012;29;20192;-81
2021/06/18 11:58:53;;;;;;;6.63;4.15;;;;;;;;;;4878331;29;20024;-81
2021/06/18 12:01:38;;;;;;;8.70;4.40;;;;;;;;;;4891555;29;20032;-82
2021/06/18 12:04:23;;;;;;;5.18;3.63;;;;;;;;;;4898584;29;20035;-81
2021/06/18 12:07:08;;;;;;;7.32;3.35;;;;;;;;;;4894350;29;20039;-81
2021/06/18 12:09:54;;;;;;;10.82;8.77;;;;;;;;;;4905423;29;20028;-81
2021/06/18 12:12:43;;;;;;;7.60;4.72;;;;;;;;;;4895070;29;20054;-82
2021/06/18 12:15:28;;;;;;;9.20;4.05;;;;;;;;;;4894924;29;20136;-81
2021/06/18 12:18:15;;;;;;;7.28;4.22;;;;;;;;;;4891670;29;20116;-81
2021/06/18 12:21:04;;;;;;;6.88;3.67;;;;;;;;;;4895219;29;20476;-81
2021/06/18 12:24:02;;;;;;;6.72;3.70;;;;;;;;;;4901745;29;20039;-82
2021/06/18 12:26:47;;;;;;;6.57;4.20;;;;;;;;;;4901800;29;20395;-81
2021/06/18 12:29:33;;;;;;;5.57;3.53;;;;;;;;;;4901314;29;20028;-82
2021/06/18 12:32:18;;;;;;;6.07;3.80;;;;;;;;;;4895829;29;20127;-82
2021/06/18 12:35:05;;;;;;;7.70;3.80;;;;;;;;;;4895946;29;20024;-82
2021/06/18 12:37:52;;;;;;;6.55;3.75;;;;;;;;;;4893604;29;20036;-82
2021/06/18 12:40:38;;;;;;;5.80;3.50;;;;;;;;;;4893450;29;20637;-82
2021/06/18 12:43:23;;;;;;;6.50;3.45;;;;;;;;;;4897388;29;20024;-81
2021/06/18 12:46:17;;;;;;;5.10;3.60;;;;;;;;;;4894002;29;20035;-81
2021/06/18 12:49:06;;;;;;;8.00;3.40;;;;;;;;;;4906886;29;20476;-82
2021/06/18 12:52:06;;;;;;;7.55;4.47;;;;;;;;;;4896948;29;20087;-83
2021/06/18 12:55:01;;;;;;;5.95;4.10;;;;;;;;;;4894741;29;20032;-81
2021/06/18 12:57:47;;;;;;;4.15;3.40;;;;;;;;;;4874768;29;20048;-80
2021/06/18 13:00:40;;;;;;;10.35;4.97;;;;;;;;;;4892186;29;20031;-83
2021/06/18 13:03:41;;;;;;;8.23;5.50;;;;;;;;;;4896087;29;20795;-81
2021/06/18 13:06:37;;;;;;;10.40;3.63;;;;;;;;;;4888567;29;20031;-80
2021/06/18 13:09:52;;;;;;;9.18;3.70;;;;;;;;;;4897510;29;20027;-83
2021/06/18 13:12:37;;;;;;;7.90;3.55;;;;;;;;;;4896219;29;20087;-83
2021/06/18 13:15:27;;;;;;;7.10;3.70;;;;;;;;;;4894607;29;20020;-82
2021/06/18 13:18:12;;;;;;;5.85;3.80;;;;;;;;;;4906559;29;20028;-83
2021/06/18 13:21:03;;;;;;;11.57;4.20;;;;;;;;;;4893707;29;20114;-82
2021/06/18 13:23:48;;;;;;;8.32;3.53;;;;;;;;;;4895505;29;20028;-80
2021/06/18 13:26:34;;;;;;;5.65;3.45;;;;;;;;;;4895906;29;20020;-83
2021/06/18 13:29:23;;;;;;;6.45;3.58;;;;;;;;;;4893868;29;20420;-82
2021/06/18 13:32:08;;;;;;;6.53;3.40;;;;;;;;;;4883442;29;20051;-82
2021/06/18 13:34:54;;;;;;;8.80;3.53;;;;;;;;;;4888373;29;20024;-82
2021/06/18 13:37:41;;;;;;;6.60;3.72;;;;;;;;;;4872744;29;20461;-83
2021/06/18 13:40:32;;;;;;;10.77;3.90;;;;;;;;;;4887419;29;20367;-83
2021/06/18 13:43:18;;;;;;;12.05;5.15;;;;;;;;;;4890481;29;20160;-83
2021/06/18 13:46:03;;;;;;;13.13;6.30;;;;;;;;;;4889669;29;20496;-83
2021/06/18 13:48:48;;;;;;;8.88;4.22;;;;;;;;;;4893124;29;20028;-83
2021/06/18 13:51:34;;;;;;;9.48;4.47;;;;;;;;;;4886762;29;20036;-83
2021/06/18 13:54:19;;;;;;;9.00;4.00;;;;;;;;;;4890132;29;20028;-83
2021/06/18 13:57:05;;;;;;;7.03;3.38;;;;;;;;;;4887272;29;20048;-82
2021/06/18 13:59:50;;;;;;;7.55;2.88;;;;;;;;;;4887593;29;20024;-82
2021/06/18 14:02:35;;;;;;;7.53;3.50;;;;;;;;;;4892442;29;20505;-82
2021/06/18 14:05:21;;;;;;;7.93;3.75;;;;;;;;;;4873014;29;20404;-81
2021/06/18 14:08:06;;;;;;;5.60;2.65;;;;;;;;;;4887060;29;20376;-82
2021/06/18 14:10:51;;;;;;;6.20;3.03;;;;;;;;;;4892462;29;20038;-81
2021/06/18 14:13:36;;;;;;;8.85;3.90;;;;;;;;;;4877917;29;20035;-81
2021/06/18 14:16:22;;;;;;;7.97;3.65;;;;;;;;;;4893384;29;20032;-82
2021/06/18 14:19:07;;;;;;;9.50;3.08;;;;;;;;;;4889416;29;20108;-81
2021/06/18 14:21:52;;;;;;;7.82;3.20;;;;;;;;;;4878252;29;20083;-81
2021/06/18 14:24:38;;;;;;;8.00;3.30;;;;;;;;;;4892689;29;20032;-80
2021/06/18 14:27:23;;;;;;;7.15;3.25;;;;;;;;;;4891924;29;20032;-81
2021/06/18 14:30:17;;;;;;;6.28;3.00;;;;;;;;;;4889232;29;20025;-81
2021/06/18 14:33:16;;;;;;;8.75;3.20;;;;;;;;;;4889197;29;20591;-80
2021/06/18 14:36:05;;;;;;;10.38;3.33;;;;;;;;;;4871879;29;20432;-81
2021/06/18 14:38:50;;;;;;;5.78;3.38;;;;;;;;;;4865661;29;20036;-81
2021/06/18 14:41:35;;;;;;;7.80;3.47;;;;;;;;;;4874226;29;20039;-80
2021/06/18 14:44:20;;;;;;;7.72;3.40;;;;;;;;;;4866646;29;20127;-80
2021/06/18 14:47:06;;;;;;;7.90;3.33;;;;;;;;;;4877490;29;20029;-80
2021/06/18 14:49:51;;;;;;;10.02;3.90;;;;;;;;;;4861238;29;20028;-81
2021/06/18 14:52:38;;;;;;;6.45;3.20;;;;;;;;;;4875289;29;20400;-82
2021/06/18 14:55:23;;;;;;;13.02;5.38;;;;;;;;;;4872542;29;20028;-82
2021/06/18 14:58:09;;;;;;;15.57;8.55;;;;;;;;;;4879002;29;20504;-82
2021/06/18 15:00:55;;;;;;;6.47;3.75;;;;;;;;;;4853428;29;20029;-82
2021/06/18 15:03:40;;;;;;;7.32;3.22;;;;;;;;;;4862353;29;20121;-81
2021/06/18 15:06:26;;;;;;;9.93;3.92;;;;;;;;;;4877382;29;20416;-81
2021/06/18 15:09:11;;;;;;;12.48;3.75;;;;;;;;;;4877792;29;20020;-82
2021/06/18 15:11:56;;;;;;;11.93;4.32;;;;;;;;;;4877410;29;20491;-81
2021/06/18 15:14:41;;;;;;;9.85;4.07;;;;;;;;;;4877926;29;20427;-82
2021/06/18 15:17:28;;;;;;;11.05;4.25;;;;;;;;;;4863716;29;20446;-81
2021/06/18 15:20:13;;;;;;;13.10;3.90;;;;;;;;;;4871662;29;20468;-82
2021/06/18 15:22:58;;;;;;;13.05;3.67;;;;;;;;;;4884019;29;20042;-81
2021/06/18 15:25:44;;;;;;;8.40;3.65;;;;;;;;;;4878977;29;20029;-82
2021/06/18 15:28:29;;;;;;;11.65;4.18;;;;;;;;;;4873691;29;20035;-82
2021/06/18 15:31:14;;;;;;;8.68;3.55;;;;;;;;;;4881709;29;20408;-81
2021/06/18 15:33:59;;;;;;;15.15;4.07;;;;;;;;;;4893997;29;20042;-82
2021/06/18 15:36:45;;;;;;;13.68;3.67;;;;;;;;;;4888375;29;20020;-81
2021/06/18 15:39:30;;;;;;;13.90;4.15;;;;;;;;;;4879326;29;20032;-82
2021/06/18 15:42:16;;;;;;;9.93;4.30;;;;;;;;;;4877802;29;20432;-81
2021/06/18 15:45:01;;;;;;;8.23;3.58;;;;;;;;;;4877988;29;20103;-83
2021/06/18 15:47:47;;;;;;;10.13;3.92;;;;;;;;;;4888158;29;20020;-82
2021/06/18 15:50:33;;;;;;;12.45;4.72;;;;;;;;;;4883936;29;20434;-82
2021/06/18 15:53:18;;;;;;;10.57;4.03;;;;;;;;;;4891252;29;20036;-82
2021/06/18 15:56:04;;;;;;;9.07;4.07;;;;;;;;;;4884178;29;20021;-82
2021/06/18 15:58:49;;;;;;;9.40;3.70;;;;;;;;;;4892642;29;20401;-82
2021/06/18 16:01:34;;;;;;;10.98;4.40;;;;;;;;;;4886566;29;20064;-83
2021/06/18 16:04:20;;;;;;;9.73;4.60;;;;;;;;;;4881614;29;20162;-82
2021/06/18 16:07:05;;;;;;;7.75;3.67;;;;;;;;;;4886796;29;20032;-82
2021/06/18 16:09:50;;;;;;;11.27;4.05;;;;;;;;;;4892483;29;20061;-83
2021/06/18 16:12:35;;;;;;;12.10;4.30;;;;;;;;;;4901890;29;20028;-82
2021/06/18 16:15:21;;;;;;;11.93;3.90;;;;;;;;;;4889495;29;20038;-83
2021/06/18 16:18:06;;;;;;;13.10;4.00;;;;;;;;;;4883362;29;20024;-82
2021/06/18 16:20:51;;;;;;;14.88;5.18;;;;;;;;;;4889540;29;20202;-83
2021/06/18 16:23:37;;;;;;;8.50;3.92;;;;;;;;;;4885711;29;20027;-82
2021/06/18 16:26:22;;;;;;;7.53;3.85;;;;;;;;;;4889978;29;20146;-81
2021/06/18 16:29:07;;;;;;;10.45;4.00;;;;;;;;;;4887278;29;20411;-81
2021/06/18 16:31:56;;;;;;;13.68;4.47;;;;;;;;;;4891483;29;20056;-81
2021/06/18 16:34:41;;;;;;;;;;;;;;;;;;4886741;29;20036;-82
2021/06/18 16:37:26;;;;;;;10.35;3.85;;;;;;;;;;4889463;29;20375;-82